EBCI - Charleroi/Gosselies, Belgium
Distance de la station: NE 18km
Mise à jour: 26/05/2020 10:20
clair
clair
 Wind from NE
Vent: NE 11 km/h
Température: 18°C
Point de rosée: 9°C
Humidité: 56%
Baromètre: 1036 hPa
Résumé: clair
Visibilité: greater than 10 km
2020/05/26 08:20 EBCI 260820Z 04006KT 360V070 CAVOK 18/09 Q1036 NOSIG
EBFS - Florennes, Belgium
Distance de la station: ESE 31km
Mise à jour: 26/05/2020 10:25
couvert
couvert
 Wind from NE
Vent: NE 15 km/h
Température: 17°C
Point de rosée: 9°C
Humidité: 59%
Baromètre: 1036 hPa
Ciel: couvert
Visibilité: 10 km
Détails du ciel: quelques nuages 2438 m
nuageux 2896 m
couvert 3353 m
2020/05/26 08:25 EBFS 260825Z AUTO 05008KT 9999 FEW080/// BKN095/// OVC110/// 17/09 Q1036 BLU
EBCV - Chievres, Belgium
Distance de la station: NO 40km
Mise à jour: 26/05/2020 10:25
clair
clair
 Wind from varies
Vent: varies 4 km/h
Température: 19°C
Point de rosée: 10°C
Humidité: 56%
Baromètre: 1036 hPa
Ciel: clair
Visibilité: 10 km
2020/05/26 08:25 EBCV 260825Z AUTO VRB02KT 9999 NCD 19/10 Q1036 BLU
 
EBBE - Beauvechain, Belgium
Distance de la station: NE 57km
Mise à jour: 26/05/2020 10:25
quelques nuages
quelques nuages
 Wind from NNE
Vent: NNE 6 km/h
Température: 17°C
Point de rosée: 10°C
Humidité: 64%
Baromètre: 1036 hPa
Ciel: quelques nuages
Visibilité: 10 km
Détails du ciel: quelques nuages 7620 m
2020/05/26 08:25 EBBE 260825Z 03003KT 9999 FEW250 17/10 Q1036 BLU BLU
EBBR - Brussels National, Belgium
Distance de la station: NNE 63km
Mise à jour: 26/05/2020 10:20
clair
clair
 Wind from varies
Vent: varies 2 km/h
Température: 19°C
Point de rosée: 11°C
Humidité: 60%
Baromètre: 1036 hPa
Résumé: clair
Visibilité: greater than 10 km
2020/05/26 08:20 EBBR 260820Z VRB01KT CAVOK 19/11 Q1036 NOSIG
LFQI - Cambrai/Epinoy, France
Distance de la station: O 82km
Mise à jour: 29/06/2012 12:30
NOT Current

 Wind from SO
Vent: SO 17 km/h
Température: 18°C
Point de rosée: 14°C
Humidité: 78%
Baromètre: 1009 hPa
2012/06/29 10:30 LFQI 291030Z AUTO 22009KT //// // ///////// 18/14 Q1009
 
LFQQ - Lille/Lesquin, France
Distance de la station: ONO 86km
Mise à jour: 26/05/2020 10:30
clair
clair
 Wind from varies
Vent: varies 6 km/h
Température: 21°C
Point de rosée: 10°C
Humidité: 50%
Baromètre: 1035 hPa
Résumé: clair
Visibilité: greater than 10 km
2020/05/26 08:30 LFQQ 260830Z AUTO VRB03KT CAVOK 21/10 Q1035 NOSIG
EBLG - Bierset/Liege, Belgium
Distance de la station: ENE 89km
Mise à jour: 26/05/2020 10:20
clair
clair
 Wind from NE
Vent: NE 7 km/h
Température: 17°C
Point de rosée: 8°C
Humidité: 56%
Baromètre: 1036 hPa
Résumé: clair
Visibilité: greater than 10 km
2020/05/26 08:20 EBLG 260820Z 05004KT 340V120 CAVOK 17/08 Q1036 NOSIG
EBDT - Schaffen, Belgium
Distance de la station: NE 93km
Mise à jour: 26/05/2020 10:25
partiellement nuageux
partiellement nuageux
 Wind from N
Vent: N 6 km/h
Température: 18°C
Point de rosée: 9°C
Humidité: 56%
Baromètre: 1036 hPa
Ciel: partiellement nuageux
Visibilité: 10 km
Détails du ciel: partiellement nuageux 6706 m
2020/05/26 08:25 EBDT 260825Z 01003KT 9999 SCT220 18/09 Q1036 BLU BLU
 
EBAW - Antwerp/Deurne, Belgium
Distance de la station: N 96km
Mise à jour: 26/05/2020 10:20
clair
clair
 Wind from varies
Vent: varies 4 km/h
Température: 19°C
Point de rosée: 10°C
Humidité: 56%
Baromètre: 1036 hPa
Résumé: clair
Visibilité: greater than 10 km
2020/05/26 08:20 EBAW 260820Z VRB02KT CAVOK 19/10 Q1036 NOSIG
LFAQ - Bray, France
Distance de la station: OSO 119km
Mise à jour: 26/05/2020 10:30
clair
clair
 Wind from NNE
Vent: NNE 9 km/h
Température: 20°C
Point de rosée: 10°C
Humidité: 53%
Baromètre: 1036 hPa
Résumé: clair
Visibilité: greater than 10 km
2020/05/26 08:30 LFAQ 260830Z AUTO 02005KT 350V060 CAVOK 20/10 Q1036 NOSIG
LFSR - Reims/Champagne, France
Distance de la station: S 120km
Mise à jour: 16/04/2012 09:00
NOT Current
partiellement nuageux
partiellement nuageux
 Wind from N
Vent: N 17 km/h
Température: 4°C
Température ressentie: 0°C
Point de rosée: 0°C
Humidité: 75%
Baromètre: 1022 hPa
Ciel: partiellement nuageux
Visibilité: 10 km
2012/04/16 07:00 LFSR 160700Z AUTO 01009KT 340V070 9999 NSC 04/00 Q1022
 
EHWO - Woensdrecht, Netherlands
Distance de la station: N 122km
Mise à jour: 26/05/2020 10:25
couvert
couvert
 Wind from varies
Vent: varies 4 km/h
Température: 19°C
Point de rosée: 10°C
Humidité: 56%
Baromètre: 1035 hPa
Ciel: couvert
Visibilité: 10 km
Détails du ciel: couvert 9754 m
2020/05/26 08:25 EHWO 260825Z AUTO VRB02KT 9999 OVC320 19/10 Q1035 BLU NOSIG
EHBK - Zuid-Limburg, Netherlands
Distance de la station: ENE 123km
Mise à jour: 26/05/2020 10:25
clair
clair
 Wind from varies
Vent: varies 6 km/h
Température: 17°C
Point de rosée: 9°C
Humidité: 59%
Baromètre: 1035 hPa
Ciel: clair
Visibilité: 10 km
2020/05/26 08:25 EHBK 260825Z AUTO VRB03KT 9999 NCD 17/09 Q1035 NOSIG
EBBL - Kleine-Brogel, Belgium
Distance de la station: NE 124km
Mise à jour: 26/05/2020 10:42
clair
clair
 Wind from ESE
Vent: ESE 7 km/h
Température: 18°C
Point de rosée: 9°C
Humidité: 56%
Baromètre: 1036 hPa
Ciel: clair
Visibilité: 3 km
2020/05/26 08:42 EBBL 260842Z AUTO 12004KT 3400 NCD 18/09 Q1036 YLO
 
EBLB - Elsenborn, Belgium
Distance de la station: E 135km
Mise à jour: 26/05/2020 10:25
clair
clair
 Wind from NNE
Vent: NNE 19 km/h
Température: 14°C
Point de rosée: 5°C
Humidité: 55%
Baromètre: 1036 hPa
Ciel: clair
Visibilité: 10 km
2020/05/26 08:25 EBLB 260825Z AUTO 03010KT 9999 NCD 14/05 Q1036 BLU
EBOS - Oostende Airport, Belgium
Distance de la station: NO 136km
Mise à jour: 26/05/2020 10:20
clair
clair
 Wind from SO
Vent: SO 9 km/h
Température: 19°C
Point de rosée: 9°C
Humidité: 52%
Baromètre: 1036 hPa
Résumé: clair
Visibilité: greater than 10 km
2020/05/26 08:20 EBOS 260820Z 23005KT 170V260 CAVOK 19/09 Q1036 NOSIG
EBFN - Koksijde, Belgium
Distance de la station: NO 140km
Mise à jour: 26/05/2020 10:25
nuageux
nuageux
 Wind from SO
Vent: SO 7 km/h
Température: 20°C
Point de rosée: 9°C
Humidité: 49%
Baromètre: 1035 hPa
Ciel: nuageux
Visibilité: 10 km
Détails du ciel: nuageux 7010 m
2020/05/26 08:25 EBFN 260825Z 23004KT 9999 BKN230 20/09 Q1035 BLU BLU
 
ETNG - Geilenkirchen, Germany
Distance de la station: ENE 142km
Mise à jour: 26/05/2020 09:50
clair
clair
 Wind from ENE
Vent: ENE 6 km/h
Température: 17°C
Point de rosée: 9°C
Humidité: 59%
Baromètre: 1036 hPa
Résumé: clair
Visibilité: greater than 10 km
2020/05/26 07:50 ETNG 260750Z 06003KT CAVOK 17/09 Q1036 NOSIG
EHGR - Gilze-Rijen, Netherlands
Distance de la station: NNE 143km
Mise à jour: 26/05/2020 10:25
clair
clair
 Wind from varies
Vent: varies 4 km/h
Température: 19°C
Point de rosée: 10°C
Humidité: 56%
Baromètre: 1036 hPa
Ciel: clair
Visibilité: 10 km
2020/05/26 08:25 EHGR 260825Z AUTO VRB02KT 9999 NCD 19/10 Q1036 BLU VRB03KT CAVOK
EHEH - Eindhoven, Netherlands
Distance de la station: NNE 147km
Mise à jour: 26/05/2020 10:25
nuageux
nuageux
 Wind from varies
Vent: varies 6 km/h
Température: 18°C
Point de rosée: 8°C
Humidité: 52%
Baromètre: 1036 hPa
Ciel: nuageux
Visibilité: 10 km
Détails du ciel: nuageux 11278 m
2020/05/26 08:25 EHEH 260825Z AUTO VRB03KT 9999 BKN370 18/08 Q1036 BLU VRB02KT CAVOK
 
ELLX - Luxembourg, Luxembourg
Distance de la station: ESE 162km
Mise à jour: 26/05/2020 10:20
clair
clair
 Wind from NE
Vent: NE 17 km/h
Température: 16°C
Point de rosée: 8°C
Humidité: 59%
Baromètre: 1035 hPa
Résumé: clair
Visibilité: greater than 10 km
2020/05/26 08:20 ELLX 260820Z 05009KT 020V090 CAVOK 16/08 Q1035 NOSIG
EHVK - Volkel, Netherlands
Distance de la station: NE 174km
Mise à jour: 26/05/2020 10:25
couvert
couvert
 Wind from varies
Vent: varies 4 km/h
Température: 17°C
Point de rosée: 10°C
Humidité: 64%
Baromètre: 1036 hPa
Ciel: couvert
Visibilité: 10 km
Détails du ciel: couvert 7620 m
2020/05/26 08:25 EHVK 260825Z AUTO VRB02KT 9999 OVC250 17/10 Q1036 BLU 09003KT CAVOK
LFOK - Chalons/Vatry, France
Distance de la station: S 174km
Mise à jour: 26/05/2020 10:30
clair
clair
 Wind from NE
Vent: NE 20 km/h
Température: 18°C
Point de rosée: 11°C
Humidité: 64%
Baromètre: 1034 hPa
Résumé: clair
Visibilité: greater than 10 km
2020/05/26 08:30 LFOK 260830Z AUTO 04011KT CAVOK 18/11 Q1034 NOSIG
Script from Saratoga-Weather.org